createdAt,value
2023-04-25T00:00:36.066Z,3.00
2023-04-25T00:01:36.478Z,2.90
2023-04-25T00:02:37.031Z,3.00
2023-04-25T00:03:37.179Z,3.30
2023-04-25T00:04:37.298Z,3.30
2023-04-25T00:05:37.360Z,3.50
2023-04-25T00:06:37.802Z,3.40
2023-04-25T00:07:38.226Z,3.40
2023-04-25T00:08:38.645Z,3.10
2023-04-25T00:09:39.090Z,3.20
2023-04-25T00:10:39.533Z,3.30
2023-04-25T00:11:39.985Z,2.90
2023-04-25T00:12:40.424Z,3.40
2023-04-25T00:13:40.860Z,3.30
2023-04-25T00:14:41.292Z,3.30
2023-04-25T00:15:41.794Z,3.60
2023-04-25T00:16:42.538Z,3.80
2023-04-25T00:17:42.476Z,3.40
2023-04-25T00:18:42.924Z,3.40
2023-04-25T00:19:43.383Z,3.90
2023-04-25T00:20:43.861Z,2.80
2023-04-25T00:21:44.317Z,3.00
2023-04-25T00:22:44.764Z,3.30
2023-04-25T00:23:45.193Z,3.30
2023-04-25T00:24:45.629Z,2.70
2023-04-25T00:25:46.075Z,2.80
2023-04-25T00:26:46.501Z,2.90
2023-04-25T00:27:46.913Z,2.60
2023-04-25T00:28:47.329Z,2.40
2023-04-25T00:29:47.752Z,2.40
2023-04-25T00:30:48.182Z,2.50
2023-04-25T00:31:48.646Z,2.50
2023-04-25T00:32:49.176Z,2.10
2023-04-25T00:33:49.809Z,2.30
2023-04-25T00:34:49.796Z,2.90
2023-04-25T00:35:50.250Z,2.40
2023-04-25T00:36:50.661Z,2.30
2023-04-25T00:37:51.069Z,2.40
2023-04-25T00:38:51.546Z,2.30
2023-04-25T00:39:52.019Z,2.50
2023-04-25T00:40:52.500Z,2.80
2023-04-25T00:41:52.945Z,2.30
2023-04-25T00:42:53.378Z,2.50
2023-04-25T00:43:53.935Z,2.80
2023-04-25T00:44:54.357Z,2.40
2023-04-25T00:45:54.791Z,2.40
2023-04-25T00:46:55.301Z,2.40
2023-04-25T00:47:55.831Z,2.70
2023-04-25T00:48:56.295Z,2.40
2023-04-25T00:49:56.720Z,2.60
2023-04-25T00:50:57.147Z,2.60
2023-04-25T00:51:57.618Z,2.60
2023-04-25T00:52:58.061Z,2.70
2023-04-25T00:53:58.491Z,2.60
2023-04-25T00:54:58.904Z,2.90
2023-04-25T00:55:59.316Z,2.40
2023-04-25T00:56:59.732Z,2.40
2023-04-25T00:58:00.155Z,2.70
2023-04-25T00:59:00.575Z,2.80
2023-04-25T01:00:01.055Z,3.00
2023-04-25T01:01:01.591Z,2.60
2023-04-25T01:02:02.187Z,2.80
2023-04-25T01:03:02.182Z,2.60
2023-04-25T01:04:02.188Z,2.30
2023-04-25T01:05:02.649Z,2.90
2023-04-25T01:06:03.070Z,2.90
2023-04-25T01:07:03.480Z,2.70
2023-04-25T01:08:03.898Z,2.60
2023-04-25T01:09:04.319Z,2.40
2023-04-25T01:10:04.816Z,2.60
2023-04-25T01:11:05.258Z,2.30
2023-04-25T01:12:05.672Z,2.60
2023-04-25T01:13:06.093Z,2.50
2023-04-25T01:14:06.527Z,2.50
2023-04-25T01:15:06.963Z,2.40
2023-04-25T01:16:07.460Z,2.80
2023-04-25T01:17:08.003Z,2.70
2023-04-25T01:18:08.057Z,2.60
2023-04-25T01:19:08.512Z,2.50
2023-04-25T01:20:08.944Z,2.30
2023-04-25T01:21:09.359Z,2.40
2023-04-25T01:22:09.775Z,2.40
2023-04-25T01:23:10.171Z,2.40
2023-04-25T01:24:10.581Z,2.60
2023-04-25T01:25:10.995Z,2.80
2023-04-25T01:26:11.417Z,2.60
2023-04-25T01:27:11.841Z,2.20
2023-04-25T01:28:12.302Z,2.40
2023-04-25T01:29:12.761Z,2.30
2023-04-25T01:30:13.234Z,2.30
2023-04-25T01:31:13.729Z,2.40
2023-04-25T01:32:14.222Z,2.50
2023-04-25T01:33:14.695Z,2.80
2023-04-25T01:34:15.124Z,2.60
2023-04-25T01:35:15.566Z,3.00
2023-04-25T01:36:16.018Z,3.00
2023-04-25T01:37:16.446Z,2.80
2023-04-25T01:38:16.886Z,2.70
2023-04-25T01:39:17.308Z,3.20
2023-04-25T01:40:17.736Z,2.80
2023-04-25T01:41:18.178Z,2.90
2023-04-25T01:42:18.593Z,2.80
2023-04-25T01:43:19.020Z,2.70
2023-04-25T01:44:19.487Z,2.90
2023-04-25T01:45:19.950Z,3.30
2023-04-25T01:46:20.536Z,2.80
2023-04-25T01:47:20.411Z,2.60
2023-04-25T01:48:20.870Z,3.20
2023-04-25T01:49:21.314Z,3.00
2023-04-25T01:50:21.764Z,3.30
2023-04-25T01:51:22.216Z,2.70
2023-04-25T01:52:22.639Z,3.10
2023-04-25T01:53:23.042Z,3.10
2023-04-25T01:54:23.451Z,2.90
2023-04-25T01:55:23.864Z,3.40
2023-04-25T01:56:24.320Z,3.10
2023-04-25T01:57:24.731Z,3.00
2023-04-25T01:58:25.154Z,3.30
2023-04-25T01:59:25.581Z,3.00
2023-04-25T02:00:26.032Z,2.90
2023-04-25T02:01:26.486Z,3.30
2023-04-25T02:02:27.105Z,3.20
2023-04-25T02:03:27.210Z,3.30
2023-04-25T02:04:27.306Z,3.30
2023-04-25T02:05:27.264Z,3.20
2023-04-25T02:06:27.703Z,3.20
2023-04-25T02:07:28.147Z,3.30
2023-04-25T02:08:28.583Z,3.50
2023-04-25T02:09:28.995Z,3.20
2023-04-25T02:10:29.416Z,3.40
2023-04-25T02:11:29.851Z,3.60
2023-04-25T02:12:30.305Z,3.30
2023-04-25T02:13:30.766Z,3.60
2023-04-25T02:14:31.217Z,3.10
2023-04-25T02:15:31.674Z,3.60
2023-04-25T02:16:32.322Z,3.40
2023-04-25T02:17:32.222Z,3.40
2023-04-25T02:18:32.645Z,3.30
2023-04-25T02:19:33.083Z,3.30
2023-04-25T02:20:33.508Z,3.50
2023-04-25T02:21:33.935Z,3.00
2023-04-25T02:22:34.378Z,3.20
2023-04-25T02:23:34.804Z,3.10
2023-04-25T02:24:35.233Z,3.30
2023-04-25T02:25:35.660Z,3.40
2023-04-25T02:26:36.084Z,3.00
2023-04-25T02:27:36.511Z,3.30
2023-04-25T02:28:36.972Z,3.70
2023-04-25T02:29:37.388Z,3.30
2023-04-25T02:30:37.812Z,3.30
2023-04-25T02:31:38.264Z,3.00
2023-04-25T02:32:38.732Z,2.90
2023-04-25T02:33:39.190Z,3.50
2023-04-25T02:34:39.635Z,3.30
2023-04-25T02:35:40.078Z,3.30
2023-04-25T02:36:40.502Z,3.30
2023-04-25T02:37:40.936Z,3.40
2023-04-25T02:38:41.369Z,3.60
2023-04-25T02:39:41.813Z,4.00
2023-04-25T02:40:42.243Z,3.70
2023-04-25T02:41:42.670Z,3.90
2023-04-25T02:42:43.096Z,3.90
2023-04-25T02:43:43.536Z,3.40
2023-04-25T02:44:43.987Z,3.80
2023-04-25T02:45:44.417Z,3.50
2023-04-25T02:46:44.930Z,3.40
2023-04-25T02:47:45.473Z,3.60
2023-04-25T02:48:45.979Z,3.80
2023-04-25T02:49:46.466Z,3.70
2023-04-25T02:50:46.919Z,3.60
2023-04-25T02:51:47.372Z,4.30
2023-04-25T02:52:47.824Z,4.20
2023-04-25T02:53:48.390Z,4.30
2023-04-25T02:54:48.333Z,3.90
2023-04-25T02:55:48.776Z,4.60
2023-04-25T02:56:49.241Z,4.40
2023-04-25T02:57:49.704Z,4.10
2023-04-25T02:58:50.156Z,4.20
2023-04-25T02:59:50.580Z,4.20
2023-04-25T03:00:51.023Z,3.90
2023-04-25T03:01:51.474Z,4.10
2023-04-25T03:02:52.048Z,4.60
2023-04-25T03:03:52.226Z,4.40
2023-04-25T03:04:52.318Z,4.40
2023-04-25T03:05:52.756Z,4.90
2023-04-25T03:06:53.187Z,4.10
2023-04-25T03:07:53.648Z,4.20
2023-04-25T03:08:54.119Z,4.60
2023-04-25T03:09:54.590Z,4.80
2023-04-25T03:10:55.034Z,4.50
2023-04-25T03:11:55.490Z,4.70
2023-04-25T03:12:55.933Z,5.10
2023-04-25T03:13:56.386Z,4.30
2023-04-25T03:14:56.829Z,4.60
2023-04-25T03:15:57.266Z,5.40
2023-04-25T03:16:57.783Z,6.20
2023-04-25T03:17:57.785Z,6.10
2023-04-25T03:18:58.262Z,5.60
2023-04-25T03:19:58.695Z,5.60
2023-04-25T03:20:59.134Z,5.70
2023-04-25T03:21:59.554Z,5.70
2023-04-25T03:22:59.989Z,5.90
2023-04-25T03:24:00.412Z,6.40
2023-04-25T03:25:00.849Z,6.60
2023-04-25T03:26:01.270Z,5.60
2023-04-25T03:27:01.700Z,5.90
2023-04-25T03:28:02.126Z,5.60
2023-04-25T03:29:02.532Z,5.10
2023-04-25T03:30:02.970Z,5.20
2023-04-25T03:31:03.411Z,5.40
2023-04-25T03:32:03.913Z,5.20
2023-04-25T03:33:03.907Z,5.80
2023-04-25T03:34:04.391Z,5.20
2023-04-25T03:35:04.819Z,4.60
2023-04-25T03:36:05.237Z,5.30
2023-04-25T03:37:05.682Z,5.90
2023-04-25T03:38:06.112Z,5.10
2023-04-25T03:39:06.543Z,4.70
2023-04-25T03:40:06.976Z,4.60
2023-04-25T03:41:07.416Z,4.70
2023-04-25T03:42:07.952Z,5.10
2023-04-25T03:43:08.452Z,4.70
2023-04-25T03:44:08.896Z,4.40
2023-04-25T03:45:09.341Z,5.20
2023-04-25T03:46:09.808Z,4.90
2023-04-25T03:47:10.249Z,4.90
2023-04-25T03:48:10.680Z,4.80
2023-04-25T03:49:11.109Z,5.00
2023-04-25T03:50:11.544Z,5.10
2023-04-25T03:51:11.988Z,4.50
2023-04-25T03:52:12.443Z,4.20
2023-04-25T03:53:12.900Z,4.00
2023-04-25T03:54:13.310Z,3.90
2023-04-25T03:55:13.758Z,3.80
2023-04-25T03:56:14.210Z,3.80
2023-04-25T03:57:14.672Z,3.40
2023-04-25T03:58:15.111Z,3.80
2023-04-25T03:59:15.530Z,4.20
2023-04-25T04:00:15.975Z,4.20
2023-04-25T04:01:16.424Z,3.80
2023-04-25T04:02:16.972Z,4.20
2023-04-25T04:03:17.158Z,4.40
2023-04-25T04:04:17.393Z,4.70
2023-04-25T04:05:17.568Z,3.60
2023-04-25T04:06:17.511Z,3.70
2023-04-25T04:07:17.953Z,3.90
2023-04-25T04:08:18.412Z,4.00
2023-04-25T04:09:18.864Z,4.40
2023-04-25T04:10:19.305Z,4.00
2023-04-25T04:11:19.862Z,4.10
2023-04-25T04:12:20.294Z,4.30
2023-04-25T04:13:20.710Z,3.60
2023-04-25T04:14:21.119Z,4.30
2023-04-25T04:15:21.533Z,4.30
2023-04-25T04:16:22.028Z,4.00
2023-04-25T04:17:22.584Z,3.70
2023-04-25T04:18:23.075Z,4.10
2023-04-25T04:19:23.514Z,4.80
2023-04-25T04:20:23.970Z,4.40
2023-04-25T04:21:24.411Z,3.90
2023-04-25T04:22:24.933Z,4.30
2023-04-25T04:23:25.386Z,4.30
2023-04-25T04:24:25.823Z,4.90
2023-04-25T04:25:26.270Z,4.80
2023-04-25T04:26:26.724Z,6.10
2023-04-25T04:27:27.166Z,5.30
2023-04-25T04:28:27.641Z,6.30
2023-04-25T04:29:28.094Z,5.60
2023-04-25T04:30:28.526Z,5.00
2023-04-25T04:31:29.069Z,4.70
2023-04-25T04:32:29.021Z,3.90
2023-04-25T04:33:29.472Z,4.60
2023-04-25T04:34:29.909Z,4.70
2023-04-25T04:35:30.357Z,4.60
2023-04-25T04:36:30.784Z,4.30
2023-04-25T04:37:31.228Z,4.40
2023-04-25T04:38:31.677Z,4.50
2023-04-25T04:39:32.115Z,4.10
2023-04-25T04:40:32.560Z,4.50
2023-04-25T04:41:33.024Z,4.60
2023-04-25T04:42:33.479Z,4.70
2023-04-25T04:43:33.945Z,4.20
2023-04-25T04:44:34.419Z,4.70
2023-04-25T04:45:34.889Z,4.80
2023-04-25T04:46:35.356Z,4.40
2023-04-25T04:47:35.874Z,4.50
2023-04-25T04:48:36.397Z,4.50
2023-04-25T04:49:36.856Z,4.50
2023-04-25T04:50:37.319Z,3.60
2023-04-25T04:51:37.786Z,3.50
2023-04-25T04:52:38.241Z,3.30
2023-04-25T04:53:38.690Z,4.10
2023-04-25T04:54:39.143Z,4.20
2023-04-25T04:55:39.583Z,4.20
2023-04-25T04:56:40.044Z,4.30
2023-04-25T04:57:40.515Z,4.20
2023-04-25T04:58:40.994Z,4.20
2023-04-25T04:59:41.441Z,4.70
2023-04-25T05:00:41.932Z,4.80
2023-04-25T05:01:42.409Z,4.30
2023-04-25T05:02:42.929Z,4.60
2023-04-25T05:03:43.012Z,4.40
2023-04-25T05:04:43.124Z,4.80
2023-04-25T05:05:43.631Z,5.00
2023-04-25T05:06:44.101Z,4.90
2023-04-25T05:07:44.660Z,5.10
2023-04-25T05:08:45.139Z,5.20
2023-04-25T05:09:45.599Z,4.70
2023-04-25T05:10:46.044Z,5.20
2023-04-25T05:11:46.502Z,5.40
2023-04-25T05:12:46.960Z,5.20
2023-04-25T05:13:47.426Z,4.80
2023-04-25T05:14:47.856Z,5.10
2023-04-25T05:15:48.306Z,4.90
2023-04-25T05:16:48.839Z,5.30
2023-04-25T05:17:49.367Z,5.00
2023-04-25T05:18:49.814Z,4.80
2023-04-25T05:19:50.249Z,5.50
2023-04-25T05:20:50.674Z,5.80
2023-04-25T05:21:51.095Z,5.00
2023-04-25T05:22:51.545Z,5.30
2023-04-25T05:23:52.202Z,5.60
2023-04-25T05:24:53.353Z,5.40
2023-04-25T05:25:52.762Z,5.50
2023-04-25T05:26:53.210Z,5.60
2023-04-25T05:27:53.930Z,5.40
2023-04-25T05:28:53.902Z,5.70
2023-04-25T05:29:54.344Z,5.10
2023-04-25T05:30:54.776Z,5.30
2023-04-25T05:31:55.258Z,5.60
2023-04-25T05:32:55.785Z,5.30
2023-04-25T05:33:56.314Z,4.90
2023-04-25T05:34:56.865Z,4.00
2023-04-25T05:35:56.767Z,4.50
2023-04-25T05:36:57.205Z,4.40
2023-04-25T05:37:57.670Z,4.20
2023-04-25T05:38:58.144Z,4.40
2023-04-25T05:39:58.612Z,5.00
2023-04-25T05:40:59.063Z,4.50
2023-04-25T05:41:59.496Z,4.90
2023-04-25T05:42:59.941Z,5.00
2023-04-25T05:44:00.528Z,5.10
2023-04-25T05:45:00.512Z,4.90
2023-04-25T05:46:01.052Z,6.10
2023-04-25T05:47:01.537Z,5.20
2023-04-25T05:48:02.034Z,5.30
2023-04-25T05:49:02.613Z,5.70
2023-04-25T05:50:03.122Z,5.00
2023-04-25T05:51:03.563Z,4.80
2023-04-25T05:52:04.027Z,4.70
2023-04-25T05:53:04.484Z,5.10
2023-04-25T05:54:04.978Z,5.60
2023-04-25T05:55:05.499Z,4.50
2023-04-25T05:56:05.934Z,5.60
2023-04-25T05:57:06.398Z,5.30
2023-04-25T05:58:06.998Z,5.60
2023-04-25T05:59:06.785Z,5.00
2023-04-25T06:00:07.238Z,5.60
2023-04-25T06:01:07.701Z,5.40
2023-04-25T06:02:08.222Z,7.10
2023-04-25T06:03:08.981Z,6.50
2023-04-25T06:04:09.241Z,6.40
2023-04-25T06:05:09.472Z,6.90
2023-04-25T06:06:09.482Z,6.80
2023-04-25T06:07:09.912Z,7.50
2023-04-25T06:08:10.385Z,7.40
2023-04-25T06:09:12.164Z,6.60
2023-04-25T06:10:10.846Z,7.10
2023-04-25T06:11:11.315Z,6.90
2023-04-25T06:12:11.742Z,6.70
2023-04-25T06:13:12.190Z,6.60
2023-04-25T06:14:12.650Z,6.30
2023-04-25T06:15:24.434Z,5.90
2023-04-25T06:16:13.239Z,6.00
2023-04-25T06:17:13.702Z,6.20
2023-04-25T06:18:14.130Z,5.60
2023-04-25T06:19:14.579Z,5.70
2023-04-25T06:20:15.046Z,-1.00
2023-04-25T06:21:15.507Z,6.10
2023-04-25T06:22:15.971Z,5.80
2023-04-25T06:23:16.416Z,6.00
2023-04-25T06:24:16.864Z,5.80
2023-04-25T06:25:17.316Z,5.50
2023-04-25T06:26:17.766Z,4.80
2023-04-25T06:27:18.206Z,5.40
2023-04-25T06:28:18.652Z,4.70
2023-04-25T06:29:19.103Z,5.20
2023-04-25T06:30:19.562Z,5.10
2023-04-25T06:31:20.075Z,5.50
2023-04-25T06:32:20.557Z,5.00
2023-04-25T06:33:20.998Z,5.00
2023-04-25T06:34:21.450Z,5.10
2023-04-25T06:35:21.931Z,6.10
2023-04-25T06:36:22.407Z,5.60
2023-04-25T06:37:22.847Z,5.70
2023-04-25T06:38:23.278Z,5.30
2023-04-25T06:39:23.718Z,5.40
2023-04-25T06:40:24.167Z,5.10
2023-04-25T06:41:24.614Z,5.30
2023-04-25T06:42:25.051Z,5.80
2023-04-25T06:43:25.484Z,5.10
2023-04-25T06:44:25.953Z,5.10
2023-04-25T06:45:26.379Z,5.30
2023-04-25T06:46:26.886Z,5.60
2023-04-25T06:47:27.383Z,5.60
2023-04-25T06:48:27.840Z,5.00
2023-04-25T06:49:28.287Z,5.20
2023-04-25T06:50:28.715Z,6.00
2023-04-25T06:51:29.129Z,5.20
2023-04-25T06:52:29.574Z,5.10
2023-04-25T06:53:30.018Z,5.70
2023-04-25T06:54:30.468Z,5.30
2023-04-25T06:55:30.945Z,5.40
2023-04-25T06:56:31.420Z,5.60
2023-04-25T06:57:31.859Z,5.50
2023-04-25T06:58:32.298Z,6.40
2023-04-25T06:59:32.726Z,5.90
2023-04-25T07:00:33.203Z,5.60
2023-04-25T07:01:33.672Z,5.90
2023-04-25T07:02:34.235Z,5.00
2023-04-25T07:03:34.298Z,5.70
2023-04-25T07:04:34.417Z,5.30
2023-04-25T07:05:34.374Z,6.30
2023-04-25T07:06:34.830Z,5.20
2023-04-25T07:07:35.259Z,6.40
2023-04-25T07:08:35.681Z,5.80
2023-04-25T07:09:36.115Z,5.60
2023-04-25T07:10:36.555Z,5.60
2023-04-25T07:11:36.989Z,5.70
2023-04-25T07:12:37.404Z,6.40
2023-04-25T07:13:37.841Z,6.30
2023-04-25T07:14:38.286Z,6.80
2023-04-25T07:15:38.692Z,6.10
2023-04-25T07:16:39.141Z,6.20
2023-04-25T07:17:39.603Z,5.90
2023-04-25T07:18:40.057Z,5.90
2023-04-25T07:19:40.471Z,5.70
2023-04-25T07:20:40.897Z,6.00
2023-04-25T07:21:41.320Z,5.90
2023-04-25T07:22:41.750Z,5.90
2023-04-25T07:23:42.228Z,5.70
2023-04-25T07:24:42.669Z,6.30
2023-04-25T07:25:43.099Z,5.80
2023-04-25T07:26:43.521Z,6.10
2023-04-25T07:27:43.977Z,5.50
2023-04-25T07:28:44.435Z,6.00
2023-04-25T07:29:44.968Z,6.50
2023-04-25T07:30:45.425Z,5.40
2023-04-25T07:31:45.877Z,5.90
2023-04-25T07:32:45.839Z,5.40
2023-04-25T07:33:46.264Z,5.70
2023-04-25T07:34:46.683Z,6.50
2023-04-25T07:35:47.087Z,5.60
2023-04-25T07:36:47.515Z,5.30
2023-04-25T07:37:47.960Z,5.30
2023-04-25T07:38:48.656Z,4.70
2023-04-25T07:39:48.558Z,5.00
2023-04-25T07:40:48.994Z,5.40
2023-04-25T07:41:49.428Z,4.90
2023-04-25T07:42:49.854Z,5.50
2023-04-25T07:43:50.291Z,5.50
2023-04-25T07:44:50.709Z,5.10
2023-04-25T07:45:51.136Z,5.40
2023-04-25T07:46:51.594Z,4.80
2023-04-25T07:47:52.047Z,4.50
2023-04-25T07:48:52.852Z,4.40
2023-04-25T07:49:53.003Z,4.40
2023-04-25T07:50:53.497Z,4.30
2023-04-25T07:51:53.901Z,4.30
2023-04-25T07:52:54.303Z,4.10
2023-04-25T07:53:54.701Z,3.80
2023-04-25T07:54:55.143Z,3.70
2023-04-25T07:55:55.579Z,3.40
2023-04-25T07:56:56.014Z,3.40
2023-04-25T07:57:56.515Z,3.80
2023-04-25T07:58:56.987Z,3.30
2023-04-25T07:59:57.428Z,3.60
2023-04-25T08:00:57.859Z,3.70
2023-04-25T08:01:58.318Z,3.40
2023-04-25T08:02:58.934Z,3.30
2023-04-25T08:03:59.022Z,3.70
2023-04-25T08:04:59.317Z,3.30
2023-04-25T08:05:59.543Z,3.40
2023-04-25T08:06:59.616Z,3.20
2023-04-25T08:08:00.035Z,3.10
2023-04-25T08:09:00.444Z,3.30
2023-04-25T08:10:00.895Z,3.30
2023-04-25T08:11:01.343Z,3.10
2023-04-25T08:12:01.793Z,3.50
2023-04-25T08:13:02.228Z,3.20
2023-04-25T08:14:02.686Z,3.20
2023-04-25T08:15:03.119Z,3.70
2023-04-25T08:16:03.559Z,3.30
2023-04-25T08:17:04.022Z,3.40
2023-04-25T08:18:04.482Z,3.10
2023-04-25T08:19:04.989Z,3.60
2023-04-25T08:20:05.415Z,3.80
2023-04-25T08:21:05.828Z,3.70
2023-04-25T08:22:06.309Z,3.60
2023-04-25T08:23:06.765Z,3.70
2023-04-25T08:24:07.790Z,3.80
2023-04-25T08:25:07.549Z,3.70
2023-04-25T08:26:07.989Z,3.50
2023-04-25T08:27:08.440Z,4.20
2023-04-25T08:28:08.867Z,3.70
2023-04-25T08:29:09.326Z,3.60
2023-04-25T08:30:09.769Z,3.80
2023-04-25T08:31:10.256Z,4.00
2023-04-25T08:32:10.723Z,4.10
2023-04-25T08:33:11.196Z,4.10
2023-04-25T08:34:11.670Z,3.50
2023-04-25T08:35:12.114Z,3.70
2023-04-25T08:36:12.543Z,4.20
2023-04-25T08:37:12.975Z,4.10
2023-04-25T08:38:13.397Z,3.60
2023-04-25T08:39:13.918Z,4.20
2023-04-25T08:40:14.343Z,4.20
2023-04-25T08:41:14.795Z,5.00
2023-04-25T08:42:15.248Z,4.70
2023-04-25T08:43:15.684Z,4.30
2023-04-25T08:44:16.115Z,4.70
2023-04-25T08:45:16.545Z,4.70
2023-04-25T08:46:16.999Z,5.40
2023-04-25T08:47:17.456Z,5.60
2023-04-25T08:48:17.878Z,6.10
2023-04-25T08:49:18.325Z,5.60
2023-04-25T08:50:18.775Z,6.20
2023-04-25T08:51:19.957Z,5.40
2023-04-25T08:52:19.254Z,4.60
2023-04-25T08:53:19.884Z,5.00
2023-04-25T08:54:34.379Z,4.80
2023-04-25T08:55:19.896Z,5.10
2023-04-25T08:56:20.316Z,6.40
2023-04-25T08:57:20.729Z,6.80
2023-04-25T08:58:21.164Z,5.80
2023-04-25T08:59:21.784Z,5.70
2023-04-25T09:00:21.784Z,5.10
2023-04-25T09:01:21.723Z,4.60
2023-04-25T09:02:22.355Z,4.80
2023-04-25T09:03:22.433Z,4.70
2023-04-25T09:04:22.421Z,4.90
2023-04-25T09:05:22.901Z,5.40
2023-04-25T09:06:23.338Z,5.70
2023-04-25T09:07:23.780Z,5.70
2023-04-25T09:08:24.200Z,5.90
2023-04-25T09:09:24.634Z,6.00
2023-04-25T09:10:25.072Z,5.60
2023-04-25T09:11:25.513Z,5.50
2023-04-25T09:12:25.952Z,5.80
2023-04-25T09:13:26.374Z,5.80
2023-04-25T09:14:26.908Z,5.30
2023-04-25T09:15:26.884Z,5.20
2023-04-25T09:16:27.434Z,5.20
2023-04-25T09:17:27.372Z,5.10
2023-04-25T09:18:30.765Z,5.60
2023-04-25T09:19:39.515Z,6.30
2023-04-25T09:20:27.988Z,5.00
2023-04-25T09:21:28.398Z,5.40
2023-04-25T09:22:28.816Z,5.60
2023-04-25T09:23:29.244Z,5.10
2023-04-25T09:24:29.736Z,4.50
2023-04-25T09:25:30.150Z,4.60
2023-04-25T09:26:30.630Z,4.90
2023-04-25T09:27:31.064Z,5.00
2023-04-25T09:28:31.501Z,5.00
2023-04-25T09:29:31.922Z,5.30
2023-04-25T09:30:32.360Z,5.20
2023-04-25T09:31:32.818Z,5.20
2023-04-25T09:32:33.577Z,4.80
2023-04-25T09:33:33.539Z,5.50
2023-04-25T09:34:33.973Z,5.80
2023-04-25T09:35:33.956Z,5.40
2023-04-25T09:36:34.853Z,5.10
2023-04-25T09:37:34.746Z,6.00
2023-04-25T09:38:35.297Z,5.50
2023-04-25T09:39:35.845Z,6.40
2023-04-25T09:40:36.308Z,5.60
2023-04-25T09:41:36.843Z,5.60
2023-04-25T09:42:37.298Z,6.20
2023-04-25T09:43:37.761Z,-1.00
2023-04-25T09:44:38.318Z,6.00
2023-04-25T09:45:38.814Z,6.00
2023-04-25T09:46:39.391Z,6.40
2023-04-25T09:47:40.016Z,7.30
2023-04-25T09:48:39.953Z,7.20
2023-04-25T09:49:40.409Z,7.80
2023-04-25T09:50:40.880Z,8.60
2023-04-25T09:51:41.332Z,8.60
2023-04-25T09:52:41.792Z,9.20
2023-04-25T09:53:42.305Z,9.70
2023-04-25T09:54:42.855Z,10.40
2023-04-25T09:55:43.396Z,11.20
2023-04-25T09:56:43.943Z,11.40
2023-04-25T09:57:44.499Z,11.20
2023-04-25T09:58:45.061Z,10.80
2023-04-25T09:59:45.618Z,11.30
2023-04-25T10:00:46.182Z,11.50
2023-04-25T10:01:46.768Z,10.90
2023-04-25T10:02:46.925Z,11.80
2023-04-25T10:03:46.987Z,9.90
2023-04-25T10:04:47.047Z,10.80
2023-04-25T10:05:47.039Z,9.30
2023-04-25T10:06:47.498Z,7.90
2023-04-25T10:07:47.991Z,8.40
2023-04-25T10:08:48.458Z,8.70
2023-04-25T10:09:48.915Z,8.70
2023-04-25T10:10:49.390Z,8.40
2023-04-25T10:11:49.824Z,8.70
2023-04-25T10:12:50.285Z,9.20
2023-04-25T10:13:50.989Z,8.70
2023-04-25T10:14:51.015Z,8.50
2023-04-25T10:15:51.465Z,7.70
2023-04-25T10:16:51.935Z,8.00
2023-04-25T10:17:52.431Z,8.80
2023-04-25T10:18:52.925Z,8.00
2023-04-25T10:19:53.364Z,8.70
2023-04-25T10:20:54.465Z,7.60
2023-04-25T10:21:54.375Z,5.80
2023-04-25T10:22:54.812Z,5.70
2023-04-25T10:23:55.237Z,7.10
2023-04-25T10:24:55.643Z,6.10
2023-04-25T10:25:56.090Z,5.30
2023-04-25T10:26:56.516Z,5.80
2023-04-25T10:27:56.938Z,5.60
2023-04-25T10:28:57.359Z,5.30
2023-04-25T10:29:57.784Z,4.20
2023-04-25T10:30:58.271Z,3.90
2023-04-25T10:31:58.804Z,3.80
2023-04-25T10:32:59.265Z,4.10
2023-04-25T10:33:59.744Z,4.30
2023-04-25T10:35:00.185Z,4.00
2023-04-25T10:36:00.614Z,4.80
2023-04-25T10:37:01.047Z,4.00
2023-04-25T10:38:01.479Z,3.90
2023-04-25T10:39:01.922Z,3.50
2023-04-25T10:40:02.356Z,3.80
2023-04-25T10:41:02.780Z,3.20
2023-04-25T10:42:03.193Z,3.20
2023-04-25T10:43:03.614Z,3.40
2023-04-25T10:44:04.027Z,3.50
2023-04-25T10:45:04.466Z,4.00
2023-04-25T10:46:04.940Z,3.70
2023-04-25T10:47:05.537Z,3.90
2023-04-25T10:48:05.573Z,4.20
2023-04-25T10:49:05.530Z,5.10
2023-04-25T10:50:05.972Z,4.90
2023-04-25T10:51:06.410Z,5.50
2023-04-25T10:52:06.838Z,5.40
2023-04-25T10:53:07.286Z,5.70
2023-04-25T10:54:07.762Z,5.90
2023-04-25T10:55:08.193Z,6.00
2023-04-25T10:56:10.481Z,6.40
2023-04-25T10:57:09.163Z,6.90
2023-04-25T10:58:09.598Z,6.80
2023-04-25T10:59:10.040Z,6.70
2023-04-25T11:00:10.489Z,6.80
2023-04-25T11:01:10.947Z,6.80
2023-04-25T11:02:11.528Z,7.10
2023-04-25T11:03:11.647Z,6.10
2023-04-25T11:04:11.736Z,6.90
2023-04-25T11:05:11.739Z,5.80
2023-04-25T11:06:12.183Z,5.90
2023-04-25T11:07:12.643Z,6.80
2023-04-25T11:08:13.128Z,7.10
2023-04-25T11:09:13.569Z,5.20
2023-04-25T11:10:14.073Z,6.30
2023-04-25T11:11:14.614Z,4.80
2023-04-25T11:12:15.066Z,6.00
2023-04-25T11:13:15.512Z,6.50
2023-04-25T11:14:15.948Z,7.30
2023-04-25T11:15:16.368Z,6.70
2023-04-25T11:16:26.748Z,7.60
2023-04-25T11:17:16.983Z,8.60
2023-04-25T11:18:17.581Z,9.20
2023-04-25T11:19:18.075Z,8.00
2023-04-25T11:20:18.541Z,6.40
2023-04-25T11:21:19.064Z,8.00
2023-04-25T11:22:19.602Z,7.30
2023-04-25T11:23:20.052Z,7.10
2023-04-25T11:24:20.513Z,7.50
2023-04-25T11:25:21.005Z,7.40
2023-04-25T11:26:21.520Z,6.60
2023-04-25T11:27:22.022Z,7.40
2023-04-25T11:28:22.766Z,7.40
2023-04-25T11:29:23.091Z,8.00
2023-04-25T11:30:23.604Z,7.80
2023-04-25T11:31:24.115Z,8.80
2023-04-25T11:32:25.473Z,8.30
2023-04-25T11:33:25.143Z,9.80
2023-04-25T11:34:25.129Z,9.60
2023-04-25T11:35:25.704Z,10.50
2023-04-25T11:36:26.274Z,10.10
2023-04-25T11:37:26.801Z,9.50
2023-04-25T11:38:28.034Z,8.30
2023-04-25T11:39:27.498Z,7.70
2023-04-25T11:40:27.998Z,10.20
2023-04-25T11:41:28.553Z,10.30
2023-04-25T11:42:29.060Z,7.90
2023-04-25T11:43:29.556Z,9.30
2023-04-25T11:44:30.075Z,9.10
2023-04-25T11:45:30.612Z,10.40
2023-04-25T11:46:31.307Z,10.70
2023-04-25T11:47:31.322Z,8.70
2023-04-25T11:48:31.839Z,8.20
2023-04-25T11:49:32.592Z,9.20
2023-04-25T11:50:32.612Z,9.20
2023-04-25T11:51:33.119Z,9.60
2023-04-25T11:52:33.653Z,8.80
2023-04-25T11:53:34.157Z,9.20
2023-04-25T11:54:34.651Z,8.90
2023-04-25T11:55:35.162Z,8.40
2023-04-25T11:56:35.625Z,8.70
2023-04-25T11:57:36.132Z,8.80
2023-04-25T11:58:37.011Z,8.00
2023-04-25T11:59:36.919Z,7.70
2023-04-25T12:00:37.413Z,8.80
2023-04-25T12:01:37.938Z,8.80
2023-04-25T12:02:38.595Z,8.90
2023-04-25T12:03:38.878Z,8.50
2023-04-25T12:04:39.278Z,9.50
2023-04-25T12:05:39.609Z,9.20
2023-04-25T12:06:39.717Z,9.40
2023-04-25T12:07:39.679Z,9.20
2023-04-25T12:08:40.181Z,9.30
2023-04-25T12:09:40.686Z,9.10
2023-04-25T12:10:41.205Z,10.00
2023-04-25T12:11:41.752Z,10.00
2023-04-25T12:12:42.266Z,10.10
2023-04-25T12:13:42.780Z,9.40
2023-04-25T12:14:43.337Z,9.90
2023-04-25T12:15:43.965Z,10.10
2023-04-25T12:16:44.102Z,9.70
2023-04-25T12:17:44.183Z,7.80
2023-04-25T12:18:44.684Z,9.40
2023-04-25T12:19:45.216Z,9.40
2023-04-25T12:20:45.706Z,8.30
2023-04-25T12:21:57.341Z,8.70
2023-04-25T12:22:46.336Z,7.80
2023-04-25T12:23:46.791Z,7.90
2023-04-25T12:24:47.308Z,6.90
2023-04-25T12:25:47.784Z,8.60
2023-04-25T12:26:48.278Z,7.20
2023-04-25T12:27:48.776Z,7.90
2023-04-25T12:28:49.564Z,7.50
2023-04-25T12:29:50.139Z,7.70
2023-04-25T12:30:50.086Z,7.30
2023-04-25T12:31:50.575Z,7.40
2023-04-25T12:32:50.692Z,7.50
2023-04-25T12:33:51.209Z,8.20
2023-04-25T12:34:51.701Z,7.80
2023-04-25T12:35:52.151Z,7.50
2023-04-25T12:36:52.587Z,7.20
2023-04-25T12:37:53.053Z,6.60
2023-04-25T12:38:53.758Z,5.90
2023-04-25T12:39:53.776Z,6.40
2023-04-25T12:40:54.223Z,5.70
2023-04-25T12:41:54.662Z,4.80
2023-04-25T12:42:55.101Z,4.70
2023-04-25T12:43:55.539Z,4.60
2023-04-25T12:44:55.975Z,4.50
2023-04-25T12:45:56.440Z,3.90
2023-04-25T12:46:56.924Z,4.20
2023-04-25T12:47:57.442Z,4.80
2023-04-25T12:49:05.290Z,4.70
2023-04-25T12:49:58.073Z,5.10
2023-04-25T12:50:58.527Z,4.60
2023-04-25T12:51:59.121Z,4.60
2023-04-25T12:52:58.946Z,4.40
2023-04-25T12:53:59.436Z,4.30
2023-04-25T12:54:59.891Z,4.40
2023-04-25T12:56:00.380Z,4.80
2023-04-25T12:57:00.873Z,4.90
2023-04-25T12:58:01.338Z,4.40
2023-04-25T12:59:01.792Z,4.30
2023-04-25T13:00:02.214Z,4.80
2023-04-25T13:01:02.649Z,5.40
2023-04-25T13:02:03.172Z,5.30
2023-04-25T13:03:03.821Z,5.50
2023-04-25T13:04:03.992Z,5.30
2023-04-25T13:05:03.869Z,5.30
2023-04-25T13:06:04.243Z,6.00
2023-04-25T13:07:04.623Z,5.70
2023-04-25T13:08:05.037Z,5.80
2023-04-25T13:09:05.433Z,6.10
2023-04-25T13:10:05.832Z,5.70
2023-04-25T13:11:06.237Z,5.80
2023-04-25T13:12:06.673Z,6.40
2023-04-25T13:13:07.067Z,5.30
2023-04-25T13:14:07.482Z,6.00
2023-04-25T13:15:08.876Z,6.40
2023-04-25T13:16:08.207Z,5.60
2023-04-25T13:17:08.125Z,6.10
2023-04-25T13:18:08.598Z,5.40
2023-04-25T13:19:09.079Z,5.40
2023-04-25T13:20:09.528Z,5.30
2023-04-25T13:21:09.964Z,5.60
2023-04-25T13:22:10.448Z,6.20
2023-04-25T13:23:10.930Z,5.90